createdAt,value
2023-04-14T00:00:41.021Z,2.05
2023-04-14T00:03:45.432Z,2.28
2023-04-14T00:06:56.556Z,1.58
2023-04-14T00:10:00.638Z,1.92
2023-04-14T00:13:06.606Z,1.65
2023-04-14T00:19:17.076Z,1.38
2023-04-14T00:22:24.914Z,1.52
2023-04-14T00:25:30.861Z,1.67
2023-04-14T00:31:41.023Z,1.90
2023-04-14T00:37:53.119Z,1.98
2023-04-14T00:40:57.130Z,2.25
2023-04-14T00:44:03.422Z,1.52
2023-04-14T00:47:07.718Z,1.45
2023-04-14T00:50:14.390Z,1.73
2023-04-14T00:53:20.629Z,1.90
2023-04-14T00:56:28.972Z,1.92
2023-04-14T00:59:33.378Z,1.65
2023-04-14T01:02:39.684Z,1.90
2023-04-14T01:05:43.687Z,1.60
2023-04-14T01:08:52.288Z,3.00
2023-04-14T01:12:06.788Z,1.33
2023-04-14T01:15:18.499Z,1.48
2023-04-14T01:18:30.646Z,2.28
2023-04-14T01:25:07.890Z,2.17
2023-04-14T01:28:42.051Z,2.15
2023-04-14T01:31:50.591Z,2.03
2023-04-14T01:34:59.333Z,1.70
2023-04-14T01:38:10.051Z,1.90
2023-04-14T01:41:18.074Z,2.15
2023-04-14T01:44:23.638Z,1.80
2023-04-14T01:47:31.915Z,1.95
2023-04-14T01:50:37.431Z,2.22
2023-04-14T01:53:45.573Z,2.25
2023-04-14T01:56:52.386Z,2.65
2023-04-14T02:00:00.937Z,2.88
2023-04-14T02:03:08.179Z,2.25
2023-04-14T02:06:15.527Z,2.67
2023-04-14T02:09:20.713Z,2.88
2023-04-14T02:12:28.697Z,2.78
2023-04-14T02:15:34.811Z,2.95
2023-04-14T02:18:43.221Z,3.65
2023-04-14T02:21:48.247Z,2.78
2023-04-14T02:24:54.817Z,2.70
2023-04-14T02:28:02.369Z,2.65
2023-04-14T02:31:11.446Z,2.28
2023-04-14T02:34:20.398Z,3.33
2023-04-14T02:37:33.061Z,2.47
2023-04-14T02:40:42.472Z,2.80
2023-04-14T02:47:09.477Z,3.28
2023-04-14T02:50:25.742Z,2.25
2023-04-14T02:53:40.194Z,3.50
2023-04-14T02:56:53.678Z,2.72
2023-04-14T03:00:03.337Z,3.03
2023-04-14T03:03:14.658Z,2.60
2023-04-14T03:06:20.874Z,2.78
2023-04-14T03:09:28.136Z,2.70
2023-04-14T03:12:33.786Z,3.13
2023-04-14T03:15:41.508Z,3.25
2023-04-14T03:18:46.635Z,3.22
2023-04-14T03:21:56.005Z,3.10
2023-04-14T03:25:00.185Z,2.80
2023-04-14T03:28:13.095Z,2.72
2023-04-14T03:31:19.600Z,3.03
2023-04-14T03:34:32.138Z,3.13
2023-04-14T03:37:40.884Z,3.08
2023-04-14T03:40:50.620Z,3.30
2023-04-14T03:44:00.197Z,3.05
2023-04-14T03:47:07.730Z,2.70
2023-04-14T03:50:14.954Z,2.97
2023-04-14T03:53:23.511Z,2.72
2023-04-14T03:56:29.186Z,2.97
2023-04-14T03:59:38.140Z,3.45
2023-04-14T04:02:44.448Z,3.38
2023-04-14T04:05:51.648Z,2.72
2023-04-14T04:08:59.230Z,3.15
2023-04-14T04:12:07.328Z,3.20
2023-04-14T04:15:12.943Z,3.22
2023-04-14T04:18:22.178Z,3.05
2023-04-14T04:21:31.224Z,2.85
2023-04-14T04:24:41.146Z,3.28
2023-04-14T04:27:51.229Z,2.65
2023-04-14T04:30:58.897Z,3.47
2023-04-14T04:34:05.299Z,3.25
2023-04-14T04:37:12.602Z,3.28
2023-04-14T04:40:18.820Z,3.30
2023-04-14T04:43:26.691Z,2.95
2023-04-14T04:46:45.735Z,3.00
2023-04-14T04:49:53.508Z,3.00
2023-04-14T04:56:05.463Z,3.38
2023-04-14T04:59:10.261Z,2.80
2023-04-14T05:02:16.135Z,3.08
2023-04-14T05:08:25.978Z,3.28
2023-04-14T05:11:31.940Z,3.00
2023-04-14T05:14:38.092Z,3.85
2023-04-14T05:17:43.123Z,3.70
2023-04-14T05:20:49.005Z,3.88
2023-04-14T05:27:13.789Z,3.08
2023-04-14T05:30:18.616Z,2.85
2023-04-14T05:33:24.587Z,3.40
2023-04-14T05:36:28.944Z,3.53
2023-04-14T05:39:34.889Z,3.85
2023-04-14T05:42:41.385Z,3.45
2023-04-14T05:45:47.707Z,4.15
2023-04-14T05:48:51.877Z,5.63
2023-04-14T05:51:57.989Z,4.05
2023-04-14T05:55:01.956Z,6.57
2023-04-14T05:58:09.921Z,5.00
2023-04-14T06:01:13.812Z,5.75
2023-04-14T06:04:20.132Z,4.95
2023-04-14T06:07:24.249Z,5.43
2023-04-14T06:10:31.573Z,5.65
2023-04-14T06:13:37.509Z,7.60
2023-04-14T06:16:43.703Z,8.23
2023-04-14T06:20:10.078Z,5.82
2023-04-14T06:23:16.079Z,6.70
2023-04-14T06:26:20.169Z,8.63
2023-04-14T06:29:28.078Z,7.63
2023-04-14T06:32:32.063Z,7.07
2023-04-14T06:35:38.054Z,7.18
2023-04-14T06:38:41.948Z,7.07
2023-04-14T06:41:47.907Z,5.80
2023-04-14T06:47:59.633Z,6.03
2023-04-14T06:51:03.687Z,5.63
2023-04-14T06:54:09.629Z,5.18
2023-04-14T07:00:21.977Z,4.70
2023-04-14T07:03:26.517Z,5.70
2023-04-14T07:06:32.481Z,5.20
2023-04-14T07:09:36.643Z,4.80
2023-04-14T07:12:42.656Z,6.18
2023-04-14T07:18:55.142Z,4.53
2023-04-14T07:25:04.928Z,4.47
2023-04-14T07:28:08.896Z,4.35
2023-04-14T07:31:16.788Z,4.05
2023-04-14T07:34:23.201Z,5.85
2023-04-14T07:37:29.957Z,4.85
2023-04-14T07:40:33.908Z,4.55
2023-04-14T07:43:39.936Z,4.22
2023-04-14T07:46:45.879Z,4.18
2023-04-14T07:49:52.639Z,4.65
2023-04-14T07:52:56.626Z,4.13
2023-04-14T07:56:02.850Z,4.15
2023-04-14T07:59:06.764Z,5.35
2023-04-14T08:02:14.805Z,4.90
2023-04-14T08:05:18.968Z,4.15
2023-04-14T08:08:25.571Z,4.40
2023-04-14T08:11:29.600Z,3.47
2023-04-14T08:14:35.766Z,3.53
2023-04-14T08:20:47.354Z,2.58
2023-04-14T08:26:58.034Z,2.70
2023-04-14T08:33:09.636Z,3.03
2023-04-14T08:36:13.640Z,2.10
2023-04-14T08:39:19.572Z,2.28
2023-04-14T08:45:30.116Z,2.55
2023-04-14T08:48:38.567Z,2.25
2023-04-14T08:51:46.909Z,2.88
2023-04-14T08:54:52.533Z,2.88
2023-04-14T08:57:59.360Z,2.30
2023-04-14T09:01:04.723Z,3.03
2023-04-14T09:04:14.210Z,2.28
2023-04-14T09:07:18.540Z,2.72
2023-04-14T09:10:24.651Z,2.47
2023-04-14T09:13:30.165Z,2.35
2023-04-14T09:16:36.791Z,2.08
2023-04-14T09:20:35.717Z,2.38
2023-04-14T09:23:11.158Z,2.55
2023-04-14T09:26:16.237Z,2.50
2023-04-14T09:29:22.120Z,2.30
2023-04-14T09:35:46.863Z,2.15
2023-04-14T09:38:52.094Z,2.90
2023-04-14T09:42:01.118Z,2.28
2023-04-14T09:45:06.231Z,2.33
2023-04-14T09:48:12.955Z,2.33
2023-04-14T09:51:18.949Z,2.53
2023-04-14T09:54:26.677Z,2.15
2023-04-14T09:57:31.111Z,1.50
2023-04-14T10:00:37.084Z,1.63
2023-04-14T10:06:50.060Z,1.50
2023-04-14T10:09:53.945Z,1.60
2023-04-14T10:13:02.039Z,2.10
2023-04-14T10:16:06.728Z,1.30
2023-04-14T10:19:12.801Z,1.95
2023-04-14T10:22:19.400Z,1.13
2023-04-14T10:25:27.339Z,1.98
2023-04-14T10:28:34.380Z,1.88
2023-04-14T10:31:43.775Z,1.73
2023-04-14T10:35:01.603Z,1.38
2023-04-14T10:38:09.533Z,2.13
2023-04-14T10:41:14.102Z,1.92
2023-04-14T10:44:27.902Z,1.60
2023-04-14T10:47:31.922Z,1.58
2023-04-14T10:50:49.004Z,1.35
2023-04-14T10:53:57.581Z,1.50
2023-04-14T10:57:14.110Z,2.17
2023-04-14T11:00:26.970Z,1.40
2023-04-14T11:03:34.051Z,2.00
2023-04-14T11:06:52.861Z,1.98
2023-04-14T11:10:27.602Z,1.77
2023-04-14T11:13:32.334Z,1.95
2023-04-14T11:16:47.614Z,1.73
2023-04-14T11:20:15.108Z,1.60
2023-04-14T11:23:29.464Z,1.38
2023-04-14T11:26:36.264Z,1.80
2023-04-14T11:29:42.172Z,1.33
2023-04-14T11:35:57.081Z,1.77
2023-04-14T11:39:01.476Z,1.58
2023-04-14T11:42:09.524Z,1.50
2023-04-14T11:45:15.504Z,2.22
2023-04-14T11:48:22.001Z,2.20
2023-04-14T11:51:33.152Z,1.85
2023-04-14T11:54:40.354Z,1.90
2023-04-14T11:57:48.352Z,1.50
2023-04-14T12:00:56.967Z,1.73
2023-04-14T12:04:01.033Z,1.58
2023-04-14T12:07:13.055Z,2.15
2023-04-14T12:10:17.842Z,5.57
2023-04-14T12:13:26.621Z,1.88
2023-04-14T12:16:30.766Z,2.38
2023-04-14T12:19:37.002Z,1.95
2023-04-14T12:22:41.025Z,1.83
2023-04-14T12:25:47.047Z,1.48
2023-04-14T12:28:59.177Z,1.90
2023-04-14T12:35:15.657Z,2.30
2023-04-14T12:38:26.800Z,1.95
2023-04-14T12:41:30.790Z,1.58
2023-04-14T12:44:38.869Z,2.20
2023-04-14T12:47:43.723Z,1.92
2023-04-14T12:50:51.267Z,1.80
2023-04-14T12:54:08.537Z,1.48
2023-04-14T12:57:14.519Z,2.80
2023-04-14T13:03:27.006Z,1.67
2023-04-14T13:06:31.089Z,2.92
2023-04-14T13:09:37.105Z,1.92
2023-04-14T13:16:13.585Z,2.63
2023-04-14T13:19:13.279Z,2.45
2023-04-14T13:22:19.197Z,2.00
2023-04-14T13:28:29.623Z,1.85
2023-04-14T13:31:35.582Z,2.15
2023-04-14T13:34:42.783Z,1.70
2023-04-14T13:37:46.752Z,2.05
2023-04-14T13:40:52.687Z,1.60
2023-04-14T13:47:04.584Z,2.28
2023-04-14T13:50:09.876Z,1.70
2023-04-14T13:53:16.548Z,2.00
2023-04-14T13:56:22.219Z,1.50
2023-04-14T13:59:28.346Z,1.48
2023-04-14T14:02:34.347Z,1.92
2023-04-14T14:05:40.409Z,1.75
2023-04-14T14:11:50.049Z,4.07
2023-04-14T14:18:02.542Z,3.55
2023-04-14T14:21:07.055Z,2.08
2023-04-14T14:24:13.588Z,2.08
2023-04-14T14:27:17.744Z,14.40
2023-04-14T14:30:23.750Z,2.70
2023-04-14T14:36:35.482Z,5.07
2023-04-14T14:39:39.459Z,11.38
2023-04-14T14:42:45.653Z,2.03
2023-04-14T14:45:49.587Z,2.28
2023-04-14T14:48:57.424Z,3.60
2023-04-14T14:52:04.103Z,2.20
2023-04-14T14:55:11.162Z,1.42
2023-04-14T14:58:15.229Z,1.77
2023-04-14T15:01:21.253Z,2.05
2023-04-14T15:04:27.288Z,2.03
2023-04-14T15:07:33.371Z,4.03
2023-04-14T15:13:43.272Z,2.92
2023-04-14T15:16:48.136Z,2.60
2023-04-14T15:19:56.240Z,2.13
2023-04-14T15:23:00.253Z,1.23
2023-04-14T15:26:06.442Z,1.73
2023-04-14T15:29:10.575Z,2.13
2023-04-14T15:32:16.556Z,1.88
2023-04-14T15:35:22.471Z,1.88
2023-04-14T15:38:28.464Z,1.83
2023-04-14T15:44:38.082Z,2.25
2023-04-14T15:47:45.673Z,3.15
2023-04-14T15:50:53.573Z,2.63
2023-04-14T15:53:57.535Z,2.17
2023-04-14T15:57:03.845Z,1.92
2023-04-14T16:00:09.289Z,2.80
2023-04-14T16:03:21.974Z,2.63
2023-04-14T16:06:28.055Z,3.15
2023-04-14T16:09:33.990Z,1.92
2023-04-14T16:15:44.280Z,1.70
2023-04-14T16:18:48.688Z,1.60
2023-04-14T16:21:56.636Z,1.75
2023-04-14T16:25:00.762Z,1.92
2023-04-14T16:28:06.857Z,1.80
2023-04-14T16:34:17.788Z,1.80
2023-04-14T16:37:25.309Z,1.80
2023-04-14T16:40:31.475Z,1.90
2023-04-14T16:43:35.446Z,1.73
2023-04-14T16:52:53.124Z,1.90
2023-04-14T16:56:03.137Z,2.85
2023-04-14T16:59:09.487Z,1.90
2023-04-14T17:02:13.618Z,1.60
2023-04-14T17:05:19.793Z,1.70
2023-04-14T17:08:26.072Z,1.65
2023-04-14T17:11:32.019Z,1.90
2023-04-14T17:17:43.110Z,1.88
2023-04-14T17:20:47.185Z,1.75
2023-04-14T17:23:55.122Z,2.50
2023-04-14T17:26:59.183Z,2.90
2023-04-14T17:30:05.649Z,3.10
2023-04-14T17:33:10.396Z,2.38
2023-04-14T17:36:17.321Z,2.50
2023-04-14T17:39:26.093Z,2.05
2023-04-14T17:42:33.775Z,3.42
2023-04-14T17:45:39.553Z,2.72
2023-04-14T17:48:45.820Z,3.45
2023-04-14T17:51:51.886Z,2.60
2023-04-14T17:54:59.950Z,2.20
2023-04-14T17:58:04.602Z,3.88
2023-04-14T18:01:10.925Z,2.50
2023-04-14T18:04:14.943Z,3.50
2023-04-14T18:07:21.121Z,2.63
2023-04-14T18:10:27.446Z,2.58
2023-04-14T18:13:34.170Z,3.45
2023-04-14T18:16:38.409Z,2.80
2023-04-14T18:19:44.505Z,2.75
2023-04-14T18:22:48.406Z,2.88
2023-04-14T18:29:09.547Z,3.03
2023-04-14T18:32:15.551Z,3.17
2023-04-14T18:38:26.918Z,2.70
2023-04-14T18:41:32.700Z,2.70
2023-04-14T18:44:38.576Z,2.97
2023-04-14T18:50:48.623Z,3.13
2023-04-14T18:57:00.434Z,3.25
2023-04-14T19:00:06.552Z,3.83
2023-04-14T19:03:12.624Z,3.40
2023-04-14T19:06:16.602Z,3.47
2023-04-14T19:09:22.793Z,4.03
2023-04-14T19:12:28.990Z,3.50
2023-04-14T19:15:34.908Z,3.05
2023-04-14T19:21:45.019Z,3.55
2023-04-14T19:27:57.969Z,3.50
2023-04-14T19:31:02.060Z,3.75
2023-04-14T19:34:08.382Z,3.42
2023-04-14T19:37:13.172Z,2.92
2023-04-14T19:40:19.493Z,3.50
2023-04-14T19:43:25.369Z,3.53
2023-04-14T19:46:32.467Z,3.25
2023-04-14T19:49:38.870Z,3.47
2023-04-14T19:52:46.258Z,3.83
2023-04-14T19:55:51.436Z,3.53
2023-04-14T19:58:59.631Z,4.32
2023-04-14T20:02:05.177Z,3.35
2023-04-14T20:05:14.281Z,3.17
2023-04-14T20:08:18.208Z,3.13
2023-04-14T20:11:27.308Z,3.50
2023-04-14T20:14:34.122Z,3.67
2023-04-14T20:17:40.058Z,3.05
2023-04-14T20:23:50.011Z,3.15
2023-04-14T20:26:54.946Z,3.50
2023-04-14T20:30:02.885Z,3.50
2023-04-14T20:33:07.154Z,3.35
2023-04-14T20:36:13.744Z,3.80
2023-04-14T20:39:17.768Z,3.33
2023-04-14T20:42:23.874Z,3.08
2023-04-14T20:45:29.783Z,4.05
2023-04-14T20:48:35.815Z,3.83
2023-04-14T20:54:45.445Z,3.88
2023-04-14T21:00:57.924Z,3.40
2023-04-14T21:04:01.922Z,2.83
2023-04-14T21:07:08.393Z,3.40
2023-04-14T21:10:14.443Z,4.07
2023-04-14T21:15:28.207Z,3.25
2023-04-14T21:16:46.275Z,3.30
2023-04-14T21:19:52.205Z,3.83
2023-04-14T21:22:56.400Z,3.10
2023-04-14T21:26:02.361Z,2.72
2023-04-14T21:29:08.893Z,2.92
2023-04-14T21:32:17.237Z,2.50
2023-04-14T21:35:21.149Z,2.80
2023-04-14T21:38:27.469Z,3.10
2023-04-14T21:41:33.343Z,2.80
2023-04-14T21:44:39.312Z,3.28
2023-04-14T21:47:45.373Z,2.85
2023-04-14T21:50:51.418Z,2.58
2023-04-14T21:57:01.273Z,3.17
2023-04-14T22:03:16.138Z,3.45
2023-04-14T22:06:20.626Z,2.90
2023-04-14T22:09:26.528Z,2.72
2023-04-14T22:12:31.967Z,3.25
2023-04-14T22:15:37.947Z,2.78
2023-04-14T22:18:46.974Z,2.58
2023-04-14T22:21:50.855Z,2.60
2023-04-14T22:24:56.813Z,2.15
2023-04-14T22:31:07.246Z,2.63
2023-04-14T22:34:13.504Z,2.67
2023-04-14T22:37:19.427Z,2.53
2023-04-14T22:43:29.336Z,2.35
2023-04-14T22:46:33.246Z,2.58
2023-04-14T22:49:41.153Z,2.92
2023-04-14T22:52:45.051Z,2.75
2023-04-14T22:55:50.970Z,3.08
2023-04-14T23:02:00.952Z,2.78
2023-04-14T23:05:08.815Z,3.47
2023-04-14T23:08:15.175Z,3.05
2023-04-14T23:11:20.670Z,3.03
2023-04-14T23:14:27.047Z,3.22
2023-04-14T23:17:31.483Z,3.20
2023-04-14T23:20:39.383Z,4.10
2023-04-14T23:23:43.722Z,3.17
2023-04-14T23:26:49.744Z,3.30
2023-04-14T23:32:59.737Z,3.65
2023-04-14T23:36:05.906Z,3.47
2023-04-14T23:39:12.095Z,3.45
2023-04-14T23:42:15.979Z,3.60
2023-04-14T23:45:36.577Z,3.17
2023-04-14T23:48:42.548Z,3.88
2023-04-14T23:51:48.552Z,4.00
2023-04-14T23:54:54.475Z,3.47
